This is the latest recevied weather packets stored in our database for station/object LRBO. If no packets are shown the sender has not sent any weather packets the latest 10 day(s).
| Time | Temp. | Humidity | Pressure | Rain* | Wind** | Luminosity | Snow |
|---|---|---|---|---|---|---|---|
| 1777377833 | 17.78° C | 37% | 1018 hPa | - | - | - | - |
| 1777376034 | 17.78° C | 37% | 1018 hPa | - | - | - | - |
| 1777375151 | 17.78° C | 37% | 1018 hPa | - | - | - | - |
| 1777374234 | 17.78° C | 37% | 1018 hPa | - | - | - | - |
| 1777372434 | 16.11° C | 42% | 1019 hPa | - | - | - | - |
| 1777371557 | 16.11° C | 42% | 1019 hPa | - | - | - | - |
| 1777369743 | 15° C | 48% | 1019 hPa | - | - | - | - |
| 1777368841 | 15° C | 48% | 1019 hPa | - | - | - | - |
| 1777367934 | 15° C | 48% | 1019 hPa | - | - | - | - |
| 1777366134 | 12.78° C | 55% | 1019 hPa | - | - | - | - |
| 1777365234 | 12.78° C | 55% | 1019 hPa | - | - | - | - |
| 1777364333 | 12.78° C | 55% | 1019 hPa | - | - | - | - |
| 1777363434 | 12.78° C | 55% | 1019 hPa | - | - | - | - |
| 1777362533 | 12.22° C | 58% | 1019 hPa | - | - | - | - |
| 1777361634 | 12.22° C | 58% | 1019 hPa | - | - | - | - |
| 1777360734 | 12.22° C | 58% | 1019 hPa | - | - | - | - |
| 1777359833 | 12.22° C | 58% | 1019 hPa | - | - | - | - |
| 1777358933 | 8.89° C | 66% | 1020 hPa | - | - | - | - |
| 1777358056 | 8.89° C | 66% | 1020 hPa | - | - | - | - |
| 1777357134 | 8.89° C | 66% | 1020 hPa | - | - | - | - |
| 1777356234 | 8.89° C | 66% | 1020 hPa | - | - | - | - |
| 1777354434 | 7.22° C | 71% | 1019 hPa | - | - | - | - |
| 1777353553 | 7.22° C | 71% | 1019 hPa | - | - | - | - |
| 1777352643 | 7.22° C | 71% | 1019 hPa | - | - | - | - |
| 1777351733 | 1.11° C | 87% | 1019 hPa | - | - | - | - |
* Rain since midnight (hover to see other rain measurements)
** Current wind speed in m/s (hover to see current wind gust speed)